sensor_id;sensor_type;location;lat;lon;timestamp;P1;durP1;ratioP1;P2;durP2;ratioP2
3726;SDS011;1879;45.876;12.300;2022-08-19T00:00:37;5.47;;;2.17;;
3726;SDS011;1879;45.876;12.300;2022-08-19T00:03:05;2.40;;;1.70;;
3726;SDS011;1879;45.876;12.300;2022-08-19T00:05:33;3.37;;;2.00;;
3726;SDS011;1879;45.876;12.300;2022-08-19T00:08:00;4.10;;;1.53;;
3726;SDS011;1879;45.876;12.300;2022-08-19T00:10:29;4.23;;;2.00;;
3726;SDS011;1879;45.876;12.300;2022-08-19T00:12:56;2.70;;;1.53;;
3726;SDS011;1879;45.876;12.300;2022-08-19T00:15:23;6.03;;;2.07;;
3726;SDS011;1879;45.876;12.300;2022-08-19T00:17:50;6.07;;;3.20;;
3726;SDS011;1879;45.876;12.300;2022-08-19T00:20:18;7.40;;;2.40;;
3726;SDS011;1879;45.876;12.300;2022-08-19T00:22:47;6.70;;;2.43;;
3726;SDS011;1879;45.876;12.300;2022-08-19T00:25:14;6.97;;;1.93;;
3726;SDS011;1879;45.876;12.300;2022-08-19T00:27:43;6.23;;;1.77;;
3726;SDS011;1879;45.876;12.300;2022-08-19T00:30:11;3.50;;;1.90;;
3726;SDS011;1879;45.876;12.300;2022-08-19T00:32:38;4.30;;;2.00;;
3726;SDS011;1879;45.876;12.300;2022-08-19T00:35:06;7.40;;;1.93;;
3726;SDS011;1879;45.876;12.300;2022-08-19T00:37:34;6.20;;;2.67;;
3726;SDS011;1879;45.876;12.300;2022-08-19T00:40:03;4.30;;;2.20;;
3726;SDS011;1879;45.876;12.300;2022-08-19T00:42:31;5.13;;;2.27;;
3726;SDS011;1879;45.876;12.300;2022-08-19T00:45:00;2.87;;;2.00;;
3726;SDS011;1879;45.876;12.300;2022-08-19T00:47:27;5.87;;;2.60;;
3726;SDS011;1879;45.876;12.300;2022-08-19T00:49:56;3.77;;;1.80;;
3726;SDS011;1879;45.876;12.300;2022-08-19T00:52:26;8.53;;;2.90;;
3726;SDS011;1879;45.876;12.300;2022-08-19T00:54:56;3.80;;;2.00;;
3726;SDS011;1879;45.876;12.300;2022-08-19T00:57:25;4.07;;;2.13;;
3726;SDS011;1879;45.876;12.300;2022-08-19T00:59:55;5.50;;;2.23;;
3726;SDS011;1879;45.876;12.300;2022-08-19T01:02:25;4.97;;;2.10;;
3726;SDS011;1879;45.876;12.300;2022-08-19T01:04:53;6.73;;;2.70;;
3726;SDS011;1879;45.876;12.300;2022-08-19T01:07:21;4.30;;;2.30;;
3726;SDS011;1879;45.876;12.300;2022-08-19T01:09:48;7.23;;;2.43;;
3726;SDS011;1879;45.876;12.300;2022-08-19T01:12:16;4.87;;;2.40;;
3726;SDS011;1879;45.876;12.300;2022-08-19T01:14:44;3.70;;;2.30;;
3726;SDS011;1879;45.876;12.300;2022-08-19T01:17:12;3.70;;;2.53;;
3726;SDS011;1879;45.876;12.300;2022-08-19T01:19:42;3.53;;;2.00;;
3726;SDS011;1879;45.876;12.300;2022-08-19T01:22:12;3.50;;;2.30;;
3726;SDS011;1879;45.876;12.300;2022-08-19T01:24:45;7.00;;;3.43;;
3726;SDS011;1879;45.876;12.300;2022-08-19T01:27:12;4.90;;;2.40;;
3726;SDS011;1879;45.876;12.300;2022-08-19T01:29:40;3.97;;;2.07;;
3726;SDS011;1879;45.876;12.300;2022-08-19T01:32:09;7.47;;;3.30;;
3726;SDS011;1879;45.876;12.300;2022-08-19T01:34:39;8.30;;;3.13;;
3726;SDS011;1879;45.876;12.300;2022-08-19T01:37:07;6.27;;;2.87;;
3726;SDS011;1879;45.876;12.300;2022-08-19T01:39:36;4.00;;;3.10;;
3726;SDS011;1879;45.876;12.300;2022-08-19T01:42:07;7.63;;;3.33;;
3726;SDS011;1879;45.876;12.300;2022-08-19T01:44:36;4.00;;;3.00;;
3726;SDS011;1879;45.876;12.300;2022-08-19T01:47:04;8.80;;;4.00;;
3726;SDS011;1879;45.876;12.300;2022-08-19T01:49:31;3.03;;;2.43;;
3726;SDS011;1879;45.876;12.300;2022-08-19T01:51:59;4.67;;;2.80;;
3726;SDS011;1879;45.876;12.300;2022-08-19T01:54:27;6.43;;;3.60;;
3726;SDS011;1879;45.876;12.300;2022-08-19T01:56:55;5.80;;;4.10;;
3726;SDS011;1879;45.876;12.300;2022-08-19T01:59:28;7.10;;;3.50;;
3726;SDS011;1879;45.876;12.300;2022-08-19T02:01:56;4.43;;;3.77;;
3726;SDS011;1879;45.876;12.300;2022-08-19T02:04:23;12.60;;;3.73;;
3726;SDS011;1879;45.876;12.300;2022-08-19T02:06:50;5.30;;;3.13;;
3726;SDS011;1879;45.876;12.300;2022-08-19T02:09:17;4.30;;;3.10;;
3726;SDS011;1879;45.876;12.300;2022-08-19T02:11:44;7.67;;;3.10;;
3726;SDS011;1879;45.876;12.300;2022-08-19T02:14:11;6.00;;;3.27;;
3726;SDS011;1879;45.876;12.300;2022-08-19T02:16:40;6.17;;;2.70;;
3726;SDS011;1879;45.876;12.300;2022-08-19T02:19:07;4.73;;;3.17;;
3726;SDS011;1879;45.876;12.300;2022-08-19T02:21:35;4.90;;;3.40;;
3726;SDS011;1879;45.876;12.300;2022-08-19T02:24:02;6.33;;;2.93;;
3726;SDS011;1879;45.876;12.300;2022-08-19T02:26:31;4.23;;;2.57;;
3726;SDS011;1879;45.876;12.300;2022-08-19T02:28:59;6.17;;;2.77;;
3726;SDS011;1879;45.876;12.300;2022-08-19T02:31:27;5.93;;;2.87;;
3726;SDS011;1879;45.876;12.300;2022-08-19T02:33:55;4.60;;;2.50;;
3726;SDS011;1879;45.876;12.300;2022-08-19T02:36:23;4.37;;;2.57;;
3726;SDS011;1879;45.876;12.300;2022-08-19T02:38:51;6.17;;;2.40;;
3726;SDS011;1879;45.876;12.300;2022-08-19T02:41:18;2.20;;;1.80;;
3726;SDS011;1879;45.876;12.300;2022-08-19T02:43:47;5.00;;;2.30;;
3726;SDS011;1879;45.876;12.300;2022-08-19T02:46:16;4.30;;;2.30;;
3726;SDS011;1879;45.876;12.300;2022-08-19T02:48:46;8.67;;;2.23;;
3726;SDS011;1879;45.876;12.300;2022-08-19T02:51:20;7.70;;;2.07;;
3726;SDS011;1879;45.876;12.300;2022-08-19T02:53:48;3.27;;;2.17;;
3726;SDS011;1879;45.876;12.300;2022-08-19T02:56:16;5.10;;;2.23;;
3726;SDS011;1879;45.876;12.300;2022-08-19T02:58:43;4.13;;;2.00;;
3726;SDS011;1879;45.876;12.300;2022-08-19T03:01:11;5.70;;;1.73;;
3726;SDS011;1879;45.876;12.300;2022-08-19T03:03:46;2.27;;;1.77;;
3726;SDS011;1879;45.876;12.300;2022-08-19T03:06:14;7.33;;;2.33;;
3726;SDS011;1879;45.876;12.300;2022-08-19T03:08:44;5.23;;;2.20;;
3726;SDS011;1879;45.876;12.300;2022-08-19T03:11:13;3.90;;;2.10;;
3726;SDS011;1879;45.876;12.300;2022-08-19T03:13:41;3.53;;;1.77;;
3726;SDS011;1879;45.876;12.300;2022-08-19T03:16:08;2.23;;;1.83;;
3726;SDS011;1879;45.876;12.300;2022-08-19T03:18:36;2.40;;;1.70;;
3726;SDS011;1879;45.876;12.300;2022-08-19T03:21:04;2.37;;;1.53;;
3726;SDS011;1879;45.876;12.300;2022-08-19T03:23:31;2.80;;;1.90;;
3726;SDS011;1879;45.876;12.300;2022-08-19T03:26:02;3.60;;;1.57;;
3726;SDS011;1879;45.876;12.300;2022-08-19T03:28:30;3.93;;;1.90;;
3726;SDS011;1879;45.876;12.300;2022-08-19T03:30:59;3.67;;;1.60;;
3726;SDS011;1879;45.876;12.300;2022-08-19T03:33:29;3.00;;;1.40;;
3726;SDS011;1879;45.876;12.300;2022-08-19T03:36:02;4.33;;;1.90;;
3726;SDS011;1879;45.876;12.300;2022-08-19T03:38:32;2.33;;;1.30;;
3726;SDS011;1879;45.876;12.300;2022-08-19T03:41:03;2.67;;;1.63;;
3726;SDS011;1879;45.876;12.300;2022-08-19T03:43:33;2.90;;;1.50;;
3726;SDS011;1879;45.876;12.300;2022-08-19T03:46:02;3.80;;;2.43;;
3726;SDS011;1879;45.876;12.300;2022-08-19T03:48:31;4.30;;;2.13;;
3726;SDS011;1879;45.876;12.300;2022-08-19T03:50:59;4.03;;;1.70;;
3726;SDS011;1879;45.876;12.300;2022-08-19T03:53:27;7.93;;;1.73;;
3726;SDS011;1879;45.876;12.300;2022-08-19T03:55:55;2.33;;;1.43;;
3726;SDS011;1879;45.876;12.300;2022-08-19T03:58:24;5.83;;;1.33;;
3726;SDS011;1879;45.876;12.300;2022-08-19T04:00:52;4.37;;;1.90;;
3726;SDS011;1879;45.876;12.300;2022-08-19T04:03:19;4.20;;;1.47;;
3726;SDS011;1879;45.876;12.300;2022-08-19T04:05:46;1.57;;;1.20;;
3726;SDS011;1879;45.876;12.300;2022-08-19T04:08:14;5.30;;;1.97;;
3726;SDS011;1879;45.876;12.300;2022-08-19T04:10:45;4.10;;;1.67;;
3726;SDS011;1879;45.876;12.300;2022-08-19T04:13:12;2.40;;;1.33;;
3726;SDS011;1879;45.876;12.300;2022-08-19T04:15:42;4.07;;;1.30;;
3726;SDS011;1879;45.876;12.300;2022-08-19T04:18:11;4.63;;;2.33;;
3726;SDS011;1879;45.876;12.300;2022-08-19T04:20:40;2.50;;;1.33;;
3726;SDS011;1879;45.876;12.300;2022-08-19T04:23:08;6.97;;;1.63;;
3726;SDS011;1879;45.876;12.300;2022-08-19T04:25:36;3.77;;;1.67;;
3726;SDS011;1879;45.876;12.300;2022-08-19T04:28:05;1.43;;;1.20;;
3726;SDS011;1879;45.876;12.300;2022-08-19T04:30:37;4.30;;;1.77;;
3726;SDS011;1879;45.876;12.300;2022-08-19T04:33:06;4.13;;;1.40;;
3726;SDS011;1879;45.876;12.300;2022-08-19T04:35:35;2.70;;;1.33;;
3726;SDS011;1879;45.876;12.300;2022-08-19T04:38:03;6.20;;;1.63;;
3726;SDS011;1879;45.876;12.300;2022-08-19T04:40:31;3.77;;;1.40;;
3726;SDS011;1879;45.876;12.300;2022-08-19T04:43:15;2.80;;;1.57;;
3726;SDS011;1879;45.876;12.300;2022-08-19T04:45:43;2.63;;;1.30;;
3726;SDS011;1879;45.876;12.300;2022-08-19T04:48:11;2.43;;;1.10;;
3726;SDS011;1879;45.876;12.300;2022-08-19T04:50:42;2.40;;;1.30;;
3726;SDS011;1879;45.876;12.300;2022-08-19T04:53:09;2.67;;;1.70;;
3726;SDS011;1879;45.876;12.300;2022-08-19T04:55:40;3.90;;;1.50;;
3726;SDS011;1879;45.876;12.300;2022-08-19T04:58:08;3.77;;;1.43;;
3726;SDS011;1879;45.876;12.300;2022-08-19T05:00:37;2.10;;;1.37;;
3726;SDS011;1879;45.876;12.300;2022-08-19T05:03:04;2.27;;;1.57;;
3726;SDS011;1879;45.876;12.300;2022-08-19T05:05:33;1.80;;;1.43;;
3726;SDS011;1879;45.876;12.300;2022-08-19T05:08:04;2.33;;;1.70;;
3726;SDS011;1879;45.876;12.300;2022-08-19T05:10:34;3.50;;;1.50;;
3726;SDS011;1879;45.876;12.300;2022-08-19T05:13:01;2.90;;;1.50;;
3726;SDS011;1879;45.876;12.300;2022-08-19T05:15:31;1.87;;;1.00;;
3726;SDS011;1879;45.876;12.300;2022-08-19T05:17:58;2.80;;;1.77;;
3726;SDS011;1879;45.876;12.300;2022-08-19T05:20:44;6.73;;;1.57;;
3726;SDS011;1879;45.876;12.300;2022-08-19T05:23:28;2.20;;;1.93;;
3726;SDS011;1879;45.876;12.300;2022-08-19T05:25:55;2.80;;;1.47;;
3726;SDS011;1879;45.876;12.300;2022-08-19T05:28:22;5.97;;;1.67;;
3726;SDS011;1879;45.876;12.300;2022-08-19T05:30:49;3.53;;;1.60;;
3726;SDS011;1879;45.876;12.300;2022-08-19T05:33:16;3.40;;;1.50;;
3726;SDS011;1879;45.876;12.300;2022-08-19T05:35:45;2.90;;;1.60;;
3726;SDS011;1879;45.876;12.300;2022-08-19T05:38:13;2.37;;;1.30;;
3726;SDS011;1879;45.876;12.300;2022-08-19T05:40:40;2.97;;;1.67;;
3726;SDS011;1879;45.876;12.300;2022-08-19T05:43:10;3.20;;;1.70;;
3726;SDS011;1879;45.876;12.300;2022-08-19T05:45:40;3.80;;;1.87;;
3726;SDS011;1879;45.876;12.300;2022-08-19T05:48:09;4.30;;;1.90;;
3726;SDS011;1879;45.876;12.300;2022-08-19T05:50:37;5.17;;;2.07;;
3726;SDS011;1879;45.876;12.300;2022-08-19T05:53:06;3.80;;;1.17;;
3726;SDS011;1879;45.876;12.300;2022-08-19T05:55:34;3.80;;;1.60;;
3726;SDS011;1879;45.876;12.300;2022-08-19T05:58:03;2.13;;;1.83;;
3726;SDS011;1879;45.876;12.300;2022-08-19T06:00:32;2.83;;;2.00;;
3726;SDS011;1879;45.876;12.300;2022-08-19T06:02:59;3.37;;;1.67;;
3726;SDS011;1879;45.876;12.300;2022-08-19T06:05:28;2.73;;;1.23;;
3726;SDS011;1879;45.876;12.300;2022-08-19T06:07:56;2.30;;;1.50;;
3726;SDS011;1879;45.876;12.300;2022-08-19T06:10:25;1.90;;;1.80;;
3726;SDS011;1879;45.876;12.300;2022-08-19T06:12:54;4.77;;;1.80;;
3726;SDS011;1879;45.876;12.300;2022-08-19T06:15:23;3.60;;;1.80;;
3726;SDS011;1879;45.876;12.300;2022-08-19T06:17:53;5.80;;;1.80;;
3726;SDS011;1879;45.876;12.300;2022-08-19T06:20:20;5.90;;;1.77;;
3726;SDS011;1879;45.876;12.300;2022-08-19T06:22:49;3.70;;;1.47;;
3726;SDS011;1879;45.876;12.300;2022-08-19T06:25:16;6.17;;;2.03;;
3726;SDS011;1879;45.876;12.300;2022-08-19T06:27:45;2.37;;;1.63;;
3726;SDS011;1879;45.876;12.300;2022-08-19T06:30:13;2.30;;;1.50;;
3726;SDS011;1879;45.876;12.300;2022-08-19T06:32:40;7.03;;;1.83;;
3726;SDS011;1879;45.876;12.300;2022-08-19T06:35:07;2.87;;;1.60;;
3726;SDS011;1879;45.876;12.300;2022-08-19T06:37:34;2.43;;;1.67;;
3726;SDS011;1879;45.876;12.300;2022-08-19T06:40:03;2.90;;;1.80;;
3726;SDS011;1879;45.876;12.300;2022-08-19T06:42:30;2.80;;;1.93;;
3726;SDS011;1879;45.876;12.300;2022-08-19T06:44:59;3.10;;;1.80;;
3726;SDS011;1879;45.876;12.300;2022-08-19T06:47:28;2.90;;;1.53;;
3726;SDS011;1879;45.876;12.300;2022-08-19T06:49:58;4.57;;;1.67;;
3726;SDS011;1879;45.876;12.300;2022-08-19T06:52:28;4.53;;;1.70;;
3726;SDS011;1879;45.876;12.300;2022-08-19T06:54:55;1.70;;;1.30;;
3726;SDS011;1879;45.876;12.300;2022-08-19T06:57:22;7.23;;;1.77;;
3726;SDS011;1879;45.876;12.300;2022-08-19T06:59:49;2.83;;;1.40;;
3726;SDS011;1879;45.876;12.300;2022-08-19T07:02:18;2.70;;;1.60;;
3726;SDS011;1879;45.876;12.300;2022-08-19T07:04:46;4.47;;;1.77;;
3726;SDS011;1879;45.876;12.300;2022-08-19T07:07:14;2.17;;;1.60;;
3726;SDS011;1879;45.876;12.300;2022-08-19T07:09:42;4.63;;;1.83;;
3726;SDS011;1879;45.876;12.300;2022-08-19T07:12:12;4.73;;;1.90;;
3726;SDS011;1879;45.876;12.300;2022-08-19T07:14:40;4.13;;;1.67;;
3726;SDS011;1879;45.876;12.300;2022-08-19T07:17:11;3.27;;;1.40;;
3726;SDS011;1879;45.876;12.300;2022-08-19T07:19:40;3.90;;;1.40;;
3726;SDS011;1879;45.876;12.300;2022-08-19T07:22:08;5.43;;;1.67;;
3726;SDS011;1879;45.876;12.300;2022-08-19T07:24:36;4.03;;;1.27;;
3726;SDS011;1879;45.876;12.300;2022-08-19T07:27:05;2.93;;;1.37;;
3726;SDS011;1879;45.876;12.300;2022-08-19T07:29:34;2.57;;;1.43;;
3726;SDS011;1879;45.876;12.300;2022-08-19T07:32:03;2.37;;;1.70;;
3726;SDS011;1879;45.876;12.300;2022-08-19T07:34:31;2.83;;;1.70;;
3726;SDS011;1879;45.876;12.300;2022-08-19T07:37:03;3.90;;;1.60;;
3726;SDS011;1879;45.876;12.300;2022-08-19T07:39:31;4.03;;;1.67;;
3726;SDS011;1879;45.876;12.300;2022-08-19T07:42:00;3.20;;;1.40;;
3726;SDS011;1879;45.876;12.300;2022-08-19T07:44:32;5.50;;;1.57;;
3726;SDS011;1879;45.876;12.300;2022-08-19T07:46:59;5.23;;;1.40;;
3726;SDS011;1879;45.876;12.300;2022-08-19T07:49:27;4.43;;;1.37;;
3726;SDS011;1879;45.876;12.300;2022-08-19T07:51:55;1.73;;;1.50;;
3726;SDS011;1879;45.876;12.300;2022-08-19T07:54:28;2.53;;;2.00;;
3726;SDS011;1879;45.876;12.300;2022-08-19T07:56:57;2.60;;;1.50;;
3726;SDS011;1879;45.876;12.300;2022-08-19T07:59:24;2.97;;;1.37;;
3726;SDS011;1879;45.876;12.300;2022-08-19T08:01:51;4.90;;;1.57;;
3726;SDS011;1879;45.876;12.300;2022-08-19T08:04:19;2.67;;;1.53;;
3726;SDS011;1879;45.876;12.300;2022-08-19T08:07:03;3.20;;;1.30;;
3726;SDS011;1879;45.876;12.300;2022-08-19T08:09:51;2.80;;;1.80;;
3726;SDS011;1879;45.876;12.300;2022-08-19T08:12:19;2.60;;;1.30;;
3726;SDS011;1879;45.876;12.300;2022-08-19T08:14:50;2.00;;;1.50;;
3726;SDS011;1879;45.876;12.300;2022-08-19T08:17:19;4.47;;;1.43;;
3726;SDS011;1879;45.876;12.300;2022-08-19T08:19:48;2.60;;;1.67;;
3726;SDS011;1879;45.876;12.300;2022-08-19T08:22:20;2.50;;;1.63;;
3726;SDS011;1879;45.876;12.300;2022-08-19T08:25:09;3.00;;;1.40;;
3726;SDS011;1879;45.876;12.300;2022-08-19T08:27:38;3.10;;;1.67;;
3726;SDS011;1879;45.876;12.300;2022-08-19T08:30:07;4.20;;;1.70;;
3726;SDS011;1879;45.876;12.300;2022-08-19T08:32:35;2.13;;;1.80;;
3726;SDS011;1879;45.876;12.300;2022-08-19T08:35:03;4.63;;;1.70;;
3726;SDS011;1879;45.876;12.300;2022-08-19T08:37:30;5.33;;;1.37;;
3726;SDS011;1879;45.876;12.300;2022-08-19T08:39:57;5.30;;;1.60;;
3726;SDS011;1879;45.876;12.300;2022-08-19T08:42:27;2.13;;;1.57;;
3726;SDS011;1879;45.876;12.300;2022-08-19T08:44:59;2.77;;;1.37;;
3726;SDS011;1879;45.876;12.300;2022-08-19T08:47:30;2.30;;;1.50;;
3726;SDS011;1879;45.876;12.300;2022-08-19T08:50:02;2.17;;;1.40;;
3726;SDS011;1879;45.876;12.300;2022-08-19T08:52:39;3.40;;;1.50;;
3726;SDS011;1879;45.876;12.300;2022-08-19T08:55:10;3.90;;;1.47;;
3726;SDS011;1879;45.876;12.300;2022-08-19T08:57:42;1.50;;;1.00;;
3726;SDS011;1879;45.876;12.300;2022-08-19T09:00:18;2.03;;;1.40;;
3726;SDS011;1879;45.876;12.300;2022-08-19T09:02:47;2.87;;;1.40;;
3726;SDS011;1879;45.876;12.300;2022-08-19T09:05:15;3.73;;;1.57;;
3726;SDS011;1879;45.876;12.300;2022-08-19T09:07:44;4.33;;;1.50;;
3726;SDS011;1879;45.876;12.300;2022-08-19T09:10:22;3.20;;;1.20;;
3726;SDS011;1879;45.876;12.300;2022-08-19T09:12:57;3.90;;;1.90;;
3726;SDS011;1879;45.876;12.300;2022-08-19T09:15:32;4.03;;;1.23;;
3726;SDS011;1879;45.876;12.300;2022-08-19T09:18:04;1.63;;;1.20;;
3726;SDS011;1879;45.876;12.300;2022-08-19T09:20:32;4.67;;;1.83;;
3726;SDS011;1879;45.876;12.300;2022-08-19T09:22:59;2.10;;;1.27;;
3726;SDS011;1879;45.876;12.300;2022-08-19T09:25:26;7.50;;;1.63;;
3726;SDS011;1879;45.876;12.300;2022-08-19T09:27:53;1.47;;;1.13;;
3726;SDS011;1879;45.876;12.300;2022-08-19T09:30:25;2.50;;;1.10;;
3726;SDS011;1879;45.876;12.300;2022-08-19T09:32:54;2.23;;;1.40;;
3726;SDS011;1879;45.876;12.300;2022-08-19T09:35:22;1.83;;;1.10;;
3726;SDS011;1879;45.876;12.300;2022-08-19T09:37:50;1.70;;;1.37;;
3726;SDS011;1879;45.876;12.300;2022-08-19T09:40:18;7.23;;;1.50;;
3726;SDS011;1879;45.876;12.300;2022-08-19T09:42:45;2.73;;;1.17;;
3726;SDS011;1879;45.876;12.300;2022-08-19T09:45:13;3.87;;;1.27;;
3726;SDS011;1879;45.876;12.300;2022-08-19T09:47:42;1.27;;;1.10;;
3726;SDS011;1879;45.876;12.300;2022-08-19T09:50:10;2.07;;;1.40;;
3726;SDS011;1879;45.876;12.300;2022-08-19T09:52:38;5.07;;;1.50;;
3726;SDS011;1879;45.876;12.300;2022-08-19T09:55:08;3.20;;;1.20;;
3726;SDS011;1879;45.876;12.300;2022-08-19T09:57:36;4.53;;;1.40;;
3726;SDS011;1879;45.876;12.300;2022-08-19T10:00:04;2.90;;;2.03;;
3726;SDS011;1879;45.876;12.300;2022-08-19T10:02:34;2.47;;;1.60;;
3726;SDS011;1879;45.876;12.300;2022-08-19T10:05:03;2.90;;;1.63;;
3726;SDS011;1879;45.876;12.300;2022-08-19T10:07:48;2.80;;;1.60;;
3726;SDS011;1879;45.876;12.300;2022-08-19T10:10:16;4.90;;;2.50;;
3726;SDS011;1879;45.876;12.300;2022-08-19T10:12:44;4.50;;;2.17;;
3726;SDS011;1879;45.876;12.300;2022-08-19T10:15:12;3.80;;;1.80;;
3726;SDS011;1879;45.876;12.300;2022-08-19T10:17:40;2.93;;;1.10;;
3726;SDS011;1879;45.876;12.300;2022-08-19T10:20:09;4.50;;;2.33;;
3726;SDS011;1879;45.876;12.300;2022-08-19T10:22:37;4.33;;;2.27;;
3726;SDS011;1879;45.876;12.300;2022-08-19T10:25:05;3.97;;;2.50;;
3726;SDS011;1879;45.876;12.300;2022-08-19T10:27:32;3.97;;;2.10;;
3726;SDS011;1879;45.876;12.300;2022-08-19T10:29:59;2.17;;;1.80;;
3726;SDS011;1879;45.876;12.300;2022-08-19T10:32:27;5.03;;;2.87;;
3726;SDS011;1879;45.876;12.300;2022-08-19T10:34:54;5.60;;;2.90;;
3726;SDS011;1879;45.876;12.300;2022-08-19T10:37:23;3.70;;;2.20;;
3726;SDS011;1879;45.876;12.300;2022-08-19T10:39:50;3.40;;;1.70;;
3726;SDS011;1879;45.876;12.300;2022-08-19T10:42:18;2.50;;;1.70;;
3726;SDS011;1879;45.876;12.300;2022-08-19T10:44:46;3.23;;;2.10;;
3726;SDS011;1879;45.876;12.300;2022-08-19T10:47:13;2.57;;;2.03;;
3726;SDS011;1879;45.876;12.300;2022-08-19T10:49:41;3.00;;;2.07;;
3726;SDS011;1879;45.876;12.300;2022-08-19T10:52:27;5.77;;;2.23;;
3726;SDS011;1879;45.876;12.300;2022-08-19T10:54:59;3.37;;;1.90;;
3726;SDS011;1879;45.876;12.300;2022-08-19T10:57:44;4.00;;;2.17;;
3726;SDS011;1879;45.876;12.300;2022-08-19T11:00:12;3.17;;;1.93;;
3726;SDS011;1879;45.876;12.300;2022-08-19T11:02:39;4.33;;;1.70;;
3726;SDS011;1879;45.876;12.300;2022-08-19T11:05:07;5.53;;;1.77;;
3726;SDS011;1879;45.876;12.300;2022-08-19T11:07:37;3.47;;;2.20;;
3726;SDS011;1879;45.876;12.300;2022-08-19T11:10:05;3.17;;;2.40;;
3726;SDS011;1879;45.876;12.300;2022-08-19T11:12:36;3.57;;;1.77;;
3726;SDS011;1879;45.876;12.300;2022-08-19T11:15:04;3.57;;;1.87;;
3726;SDS011;1879;45.876;12.300;2022-08-19T11:17:35;4.90;;;1.77;;
3726;SDS011;1879;45.876;12.300;2022-08-19T11:20:05;3.90;;;2.10;;
3726;SDS011;1879;45.876;12.300;2022-08-19T11:22:33;3.63;;;2.10;;
3726;SDS011;1879;45.876;12.300;2022-08-19T11:25:01;10.00;;;2.30;;
3726;SDS011;1879;45.876;12.300;2022-08-19T11:27:29;2.87;;;1.77;;
3726;SDS011;1879;45.876;12.300;2022-08-19T11:29:56;3.53;;;1.60;;
3726;SDS011;1879;45.876;12.300;2022-08-19T11:32:23;4.27;;;1.60;;
3726;SDS011;1879;45.876;12.300;2022-08-19T11:34:51;3.00;;;1.63;;
3726;SDS011;1879;45.876;12.300;2022-08-19T11:37:18;2.77;;;1.80;;
3726;SDS011;1879;45.876;12.300;2022-08-19T11:39:45;4.23;;;2.00;;
3726;SDS011;1879;45.876;12.300;2022-08-19T11:42:13;1.97;;;1.60;;
3726;SDS011;1879;45.876;12.300;2022-08-19T11:45:01;3.50;;;1.70;;
3726;SDS011;1879;45.876;12.300;2022-08-19T11:47:29;3.07;;;2.77;;
3726;SDS011;1879;45.876;12.300;2022-08-19T11:49:56;2.73;;;2.03;;
3726;SDS011;1879;45.876;12.300;2022-08-19T11:52:23;3.70;;;1.60;;
3726;SDS011;1879;45.876;12.300;2022-08-19T11:54:50;4.27;;;2.40;;
3726;SDS011;1879;45.876;12.300;2022-08-19T11:57:19;3.43;;;1.93;;
3726;SDS011;1879;45.876;12.300;2022-08-19T11:59:49;2.10;;;1.60;;
3726;SDS011;1879;45.876;12.300;2022-08-19T12:02:17;6.60;;;2.27;;
3726;SDS011;1879;45.876;12.300;2022-08-19T12:04:44;2.60;;;1.30;;
3726;SDS011;1879;45.876;12.300;2022-08-19T12:07:11;2.20;;;1.97;;
3726;SDS011;1879;45.876;12.300;2022-08-19T12:09:38;2.60;;;1.27;;
3726;SDS011;1879;45.876;12.300;2022-08-19T12:12:05;2.73;;;1.73;;
3726;SDS011;1879;45.876;12.300;2022-08-19T12:14:35;2.80;;;1.50;;
3726;SDS011;1879;45.876;12.300;2022-08-19T12:17:02;4.67;;;1.50;;
3726;SDS011;1879;45.876;12.300;2022-08-19T12:19:33;2.83;;;1.93;;
3726;SDS011;1879;45.876;12.300;2022-08-19T12:22:02;3.00;;;1.70;;
3726;SDS011;1879;45.876;12.300;2022-08-19T12:24:30;3.77;;;1.93;;
3726;SDS011;1879;45.876;12.300;2022-08-19T12:26:57;3.20;;;1.70;;
3726;SDS011;1879;45.876;12.300;2022-08-19T12:29:26;2.30;;;1.60;;
3726;SDS011;1879;45.876;12.300;2022-08-19T12:31:56;3.47;;;1.80;;
3726;SDS011;1879;45.876;12.300;2022-08-19T12:34:27;2.50;;;2.07;;
3726;SDS011;1879;45.876;12.300;2022-08-19T12:36:56;1.90;;;1.70;;
3726;SDS011;1879;45.876;12.300;2022-08-19T12:39:23;3.00;;;1.97;;
3726;SDS011;1879;45.876;12.300;2022-08-19T12:41:50;4.10;;;2.20;;
3726;SDS011;1879;45.876;12.300;2022-08-19T12:44:17;2.53;;;1.70;;
3726;SDS011;1879;45.876;12.300;2022-08-19T12:46:46;3.60;;;1.43;;
3726;SDS011;1879;45.876;12.300;2022-08-19T12:49:15;1.83;;;1.60;;
3726;SDS011;1879;45.876;12.300;2022-08-19T12:51:42;3.30;;;1.70;;
3726;SDS011;1879;45.876;12.300;2022-08-19T12:54:11;4.63;;;1.90;;
3726;SDS011;1879;45.876;12.300;2022-08-19T12:56:38;5.43;;;1.70;;
3726;SDS011;1879;45.876;12.300;2022-08-19T12:59:06;2.70;;;1.80;;
3726;SDS011;1879;45.876;12.300;2022-08-19T13:01:33;2.20;;;1.70;;
3726;SDS011;1879;45.876;12.300;2022-08-19T13:04:00;23.23;;;2.57;;
3726;SDS011;1879;45.876;12.300;2022-08-19T13:06:29;5.67;;;2.03;;
3726;SDS011;1879;45.876;12.300;2022-08-19T13:08:56;3.57;;;1.70;;
3726;SDS011;1879;45.876;12.300;2022-08-19T13:11:23;2.70;;;1.80;;
3726;SDS011;1879;45.876;12.300;2022-08-19T13:13:51;2.03;;;1.63;;
3726;SDS011;1879;45.876;12.300;2022-08-19T13:16:20;2.60;;;1.30;;
3726;SDS011;1879;45.876;12.300;2022-08-19T13:18:48;8.33;;;1.90;;
3726;SDS011;1879;45.876;12.300;2022-08-19T13:21:17;2.70;;;1.33;;
3726;SDS011;1879;45.876;12.300;2022-08-19T13:23:47;4.10;;;2.20;;
3726;SDS011;1879;45.876;12.300;2022-08-19T13:26:14;2.80;;;2.27;;
3726;SDS011;1879;45.876;12.300;2022-08-19T13:28:43;3.30;;;1.53;;
3726;SDS011;1879;45.876;12.300;2022-08-19T13:31:29;4.13;;;1.80;;
3726;SDS011;1879;45.876;12.300;2022-08-19T13:34:25;3.80;;;1.70;;
3726;SDS011;1879;45.876;12.300;2022-08-19T13:36:54;4.00;;;1.90;;
3726;SDS011;1879;45.876;12.300;2022-08-19T13:39:23;3.20;;;1.90;;
3726;SDS011;1879;45.876;12.300;2022-08-19T13:41:50;4.90;;;1.90;;
3726;SDS011;1879;45.876;12.300;2022-08-19T13:44:17;4.50;;;2.10;;
3726;SDS011;1879;45.876;12.300;2022-08-19T13:46:45;4.93;;;2.17;;
3726;SDS011;1879;45.876;12.300;2022-08-19T13:49:13;3.27;;;1.97;;
3726;SDS011;1879;45.876;12.300;2022-08-19T13:51:41;3.23;;;1.90;;
3726;SDS011;1879;45.876;12.300;2022-08-19T13:54:10;3.10;;;2.23;;
3726;SDS011;1879;45.876;12.300;2022-08-19T13:56:41;1.77;;;1.47;;
3726;SDS011;1879;45.876;12.300;2022-08-19T13:59:09;4.23;;;2.03;;
3726;SDS011;1879;45.876;12.300;2022-08-19T14:01:37;4.40;;;1.40;;
3726;SDS011;1879;45.876;12.300;2022-08-19T14:04:05;3.77;;;1.63;;
3726;SDS011;1879;45.876;12.300;2022-08-19T14:06:32;2.57;;;1.43;;
3726;SDS011;1879;45.876;12.300;2022-08-19T14:08:59;5.37;;;1.90;;
3726;SDS011;1879;45.876;12.300;2022-08-19T14:11:27;3.57;;;1.67;;
3726;SDS011;1879;45.876;12.300;2022-08-19T14:13:56;8.43;;;1.87;;
3726;SDS011;1879;45.876;12.300;2022-08-19T14:16:23;4.40;;;1.90;;
3726;SDS011;1879;45.876;12.300;2022-08-19T14:18:52;5.07;;;1.73;;
3726;SDS011;1879;45.876;12.300;2022-08-19T14:21:19;4.70;;;2.10;;
3726;SDS011;1879;45.876;12.300;2022-08-19T14:23:48;5.97;;;2.10;;
3726;SDS011;1879;45.876;12.300;2022-08-19T14:26:17;9.43;;;2.27;;
3726;SDS011;1879;45.876;12.300;2022-08-19T14:28:45;5.33;;;2.27;;
3726;SDS011;1879;45.876;12.300;2022-08-19T14:31:14;6.30;;;2.07;;
3726;SDS011;1879;45.876;12.300;2022-08-19T14:33:44;3.43;;;1.80;;
3726;SDS011;1879;45.876;12.300;2022-08-19T14:36:11;6.10;;;2.37;;
3726;SDS011;1879;45.876;12.300;2022-08-19T14:38:39;3.57;;;2.00;;
3726;SDS011;1879;45.876;12.300;2022-08-19T14:41:07;9.80;;;2.10;;
3726;SDS011;1879;45.876;12.300;2022-08-19T14:43:36;5.13;;;2.10;;
3726;SDS011;1879;45.876;12.300;2022-08-19T14:46:04;8.40;;;2.20;;
3726;SDS011;1879;45.876;12.300;2022-08-19T14:48:33;5.30;;;2.27;;
3726;SDS011;1879;45.876;12.300;2022-08-19T14:51:01;5.93;;;2.00;;
3726;SDS011;1879;45.876;12.300;2022-08-19T14:53:28;5.47;;;2.10;;
3726;SDS011;1879;45.876;12.300;2022-08-19T14:55:55;4.33;;;2.00;;
3726;SDS011;1879;45.876;12.300;2022-08-19T14:58:25;5.03;;;1.73;;
3726;SDS011;1879;45.876;12.300;2022-08-19T15:00:52;2.80;;;2.00;;
3726;SDS011;1879;45.876;12.300;2022-08-19T15:03:19;5.93;;;2.30;;
3726;SDS011;1879;45.876;12.300;2022-08-19T15:05:47;3.70;;;2.00;;
3726;SDS011;1879;45.876;12.300;2022-08-19T15:08:14;4.60;;;2.20;;
3726;SDS011;1879;45.876;12.300;2022-08-19T15:10:42;4.00;;;2.37;;